createdAt,value
2023-03-29T00:00:15.741Z,-1.01
2023-03-29T00:03:04.287Z,-1.06
2023-03-29T00:05:35.012Z,-1.09
2023-03-29T00:08:04.114Z,-1.14
2023-03-29T00:10:33.649Z,-1.17
2023-03-29T00:13:02.786Z,-1.19
2023-03-29T00:15:30.761Z,-1.21
2023-03-29T00:17:58.694Z,-1.21
2023-03-29T00:20:26.951Z,-1.21
2023-03-29T00:22:54.751Z,-1.26
2023-03-29T00:25:22.716Z,-1.26
2023-03-29T00:27:50.587Z,-1.27
2023-03-29T00:30:18.818Z,-1.33
2023-03-29T00:32:47.031Z,-1.37
2023-03-29T00:35:15.114Z,-1.37
2023-03-29T00:37:43.463Z,-1.40
2023-03-29T00:40:11.773Z,-1.43
2023-03-29T00:42:44.890Z,-1.48
2023-03-29T00:45:12.586Z,-1.49
2023-03-29T00:47:51.935Z,-1.48
2023-03-29T00:50:40.419Z,-1.46
2023-03-29T00:53:21.638Z,-1.40
2023-03-29T00:55:59.515Z,-1.39
2023-03-29T00:59:13.870Z,-1.42
2023-03-29T01:01:57.183Z,-1.38
2023-03-29T01:04:46.216Z,-1.32
2023-03-29T01:07:22.993Z,-1.31
2023-03-29T01:10:01.408Z,-1.33
2023-03-29T01:12:35.933Z,-1.36
2023-03-29T01:15:10.402Z,-1.43
2023-03-29T01:17:41.748Z,-1.49
2023-03-29T01:20:22.220Z,-1.52
2023-03-29T01:23:26.932Z,-1.54
2023-03-29T01:26:20.706Z,-1.56
2023-03-29T01:28:59.244Z,-1.57
2023-03-29T01:31:36.520Z,-1.61
2023-03-29T01:34:18.079Z,-1.68
2023-03-29T01:37:00.237Z,-1.68
2023-03-29T01:39:28.015Z,-1.67
2023-03-29T01:42:27.069Z,-1.65
2023-03-29T01:45:23.083Z,-1.61
2023-03-29T01:48:25.229Z,-1.60
2023-03-29T01:51:07.126Z,-1.61
2023-03-29T01:53:50.958Z,-1.61
2023-03-29T01:56:26.352Z,-1.62
2023-03-29T01:59:04.312Z,-1.63
2023-03-29T02:01:40.257Z,-1.65
2023-03-29T02:04:13.381Z,-1.62
2023-03-29T02:06:42.240Z,-1.55
2023-03-29T02:09:12.972Z,-1.55
2023-03-29T02:11:42.982Z,-1.53
2023-03-29T02:14:10.836Z,-1.51
2023-03-29T02:16:40.318Z,-1.54
2023-03-29T02:19:10.612Z,-1.50
2023-03-29T02:22:05.787Z,-1.48
2023-03-29T02:24:36.453Z,-1.43
2023-03-29T02:27:04.759Z,-1.40
2023-03-29T02:29:32.731Z,-1.46
2023-03-29T02:32:13.192Z,-1.47
2023-03-29T02:34:56.501Z,-1.44
2023-03-29T02:37:30.047Z,-1.42
2023-03-29T02:39:58.833Z,-1.42
2023-03-29T02:42:28.488Z,-1.42
2023-03-29T02:45:00.028Z,-1.47
2023-03-29T02:47:38.288Z,-1.49
2023-03-29T02:50:07.519Z,-1.46
2023-03-29T02:52:43.109Z,-1.45
2023-03-29T02:55:17.270Z,-1.43
2023-03-29T02:57:45.461Z,-1.41
2023-03-29T03:00:14.842Z,-1.38
2023-03-29T03:02:43.177Z,-1.41
2023-03-29T03:05:11.489Z,-1.39
2023-03-29T03:07:40.613Z,-1.36
2023-03-29T03:10:10.212Z,-1.39
2023-03-29T03:12:38.691Z,-1.40
2023-03-29T03:15:07.827Z,-1.43
2023-03-29T03:17:40.249Z,-1.50
2023-03-29T03:20:13.093Z,-1.59
2023-03-29T03:22:49.523Z,-1.65
2023-03-29T03:25:20.980Z,-1.71
2023-03-29T03:27:50.283Z,-1.79
2023-03-29T03:30:20.778Z,-1.80
2023-03-29T03:33:07.855Z,-1.74
2023-03-29T03:36:02.619Z,-1.73
2023-03-29T03:38:32.578Z,-1.78
2023-03-29T03:41:02.243Z,-1.78
2023-03-29T03:43:31.127Z,-1.80
2023-03-29T03:45:59.085Z,-1.84
2023-03-29T03:48:27.270Z,-1.87
2023-03-29T03:51:14.122Z,-1.81
2023-03-29T03:53:42.268Z,-1.79
2023-03-29T03:56:13.923Z,-1.82
2023-03-29T03:59:01.061Z,-1.87
2023-03-29T04:01:30.443Z,-1.92
2023-03-29T04:04:11.864Z,-1.97
2023-03-29T04:06:43.146Z,-1.96
2023-03-29T04:09:35.549Z,-1.94
2023-03-29T04:12:23.642Z,-1.96
2023-03-29T04:14:52.117Z,-1.96
2023-03-29T04:17:22.627Z,-1.95
2023-03-29T04:19:55.648Z,-1.96
2023-03-29T04:22:27.699Z,-1.92
2023-03-29T04:24:55.564Z,-1.89
2023-03-29T04:27:46.304Z,-1.86
2023-03-29T04:30:36.477Z,-1.88
2023-03-29T04:33:15.948Z,-1.82
2023-03-29T04:35:47.725Z,-1.80
2023-03-29T04:38:16.691Z,-1.78
2023-03-29T04:40:45.578Z,-1.76
2023-03-29T04:43:23.600Z,-1.71
2023-03-29T04:45:59.528Z,-1.62
2023-03-29T04:48:48.290Z,-1.60
2023-03-29T04:51:17.609Z,-1.57
2023-03-29T04:53:45.872Z,-1.54
2023-03-29T04:56:13.692Z,-1.49
2023-03-29T04:59:13.372Z,-1.46
2023-03-29T05:01:41.513Z,-1.41
2023-03-29T05:04:12.554Z,-1.33
2023-03-29T05:06:45.084Z,-1.30
2023-03-29T05:09:12.870Z,-1.20
2023-03-29T05:11:52.006Z,-1.20
2023-03-29T05:14:20.950Z,-1.18
2023-03-29T05:16:48.988Z,-1.16
2023-03-29T05:19:17.608Z,-1.07
2023-03-29T05:21:50.093Z,-0.95
2023-03-29T05:24:22.370Z,-0.83
2023-03-29T05:27:13.470Z,-0.77
2023-03-29T05:29:42.593Z,-0.70
2023-03-29T05:32:22.924Z,-0.56
2023-03-29T05:34:51.520Z,-0.46
2023-03-29T05:37:19.900Z,-0.35
2023-03-29T05:39:51.012Z,-0.29
2023-03-29T05:42:22.540Z,-0.28
2023-03-29T05:44:55.208Z,-0.24
2023-03-29T05:47:23.677Z,-0.16
2023-03-29T05:49:51.537Z,-0.07
2023-03-29T05:52:24.624Z,0.01
2023-03-29T05:54:52.884Z,0.08
2023-03-29T05:57:22.025Z,0.18
2023-03-29T05:59:49.904Z,0.29
2023-03-29T06:02:18.838Z,0.41
2023-03-29T06:04:51.811Z,0.52
2023-03-29T06:07:38.365Z,0.65
2023-03-29T06:10:28.721Z,0.79
2023-03-29T06:13:06.037Z,0.97
2023-03-29T06:15:35.360Z,1.13
2023-03-29T06:18:06.455Z,1.26
2023-03-29T06:20:35.189Z,1.40
2023-03-29T06:23:08.585Z,1.50
2023-03-29T06:25:36.409Z,1.57
2023-03-29T06:28:04.497Z,1.61
2023-03-29T06:30:32.824Z,1.67
2023-03-29T06:33:01.634Z,1.74
2023-03-29T06:35:48.431Z,1.83
2023-03-29T06:38:21.189Z,1.99
2023-03-29T06:41:12.007Z,2.14
2023-03-29T06:43:51.599Z,2.33
2023-03-29T06:46:23.331Z,2.47
2023-03-29T06:48:56.310Z,2.62
2023-03-29T06:51:25.411Z,2.72
2023-03-29T06:53:53.425Z,2.79
2023-03-29T06:56:22.259Z,2.85
2023-03-29T06:58:59.544Z,2.89
2023-03-29T07:01:47.692Z,2.97
2023-03-29T07:04:25.027Z,3.02
2023-03-29T07:07:20.127Z,2.96
2023-03-29T07:09:54.470Z,2.91
2023-03-29T07:12:44.583Z,2.76
2023-03-29T07:15:13.186Z,2.74
2023-03-29T07:18:04.943Z,2.90
2023-03-29T07:20:33.726Z,2.96
2023-03-29T07:23:11.340Z,3.06
2023-03-29T07:25:39.403Z,3.17
2023-03-29T07:28:07.933Z,3.26
2023-03-29T07:30:37.194Z,3.34
2023-03-29T07:33:20.074Z,3.37
2023-03-29T07:36:00.923Z,3.49
2023-03-29T07:38:29.174Z,3.65
2023-03-29T07:41:05.788Z,3.75
2023-03-29T07:43:46.810Z,3.85
2023-03-29T07:46:17.049Z,3.91
2023-03-29T07:48:45.049Z,4.00
2023-03-29T07:51:16.413Z,4.12
2023-03-29T07:53:46.221Z,4.19
2023-03-29T07:56:36.278Z,4.42
2023-03-29T07:59:30.871Z,4.63
2023-03-29T08:02:11.148Z,4.78
2023-03-29T08:04:47.601Z,4.86
2023-03-29T08:07:20.066Z,4.98
2023-03-29T08:10:15.250Z,5.05
2023-03-29T08:13:10.570Z,5.12
2023-03-29T08:15:59.017Z,5.23
2023-03-29T08:18:34.932Z,5.42
2023-03-29T08:21:03.792Z,5.67
2023-03-29T08:23:32.497Z,5.90
2023-03-29T08:26:08.588Z,6.13
2023-03-29T08:28:36.524Z,6.20
2023-03-29T08:31:04.665Z,6.27
2023-03-29T08:33:32.897Z,6.30
2023-03-29T08:36:19.713Z,6.44
2023-03-29T08:38:48.165Z,6.43
2023-03-29T08:41:42.531Z,6.62
2023-03-29T08:44:36.258Z,6.86
2023-03-29T08:47:53.182Z,7.02
2023-03-29T08:50:27.232Z,7.18
2023-03-29T08:53:00.433Z,7.28
2023-03-29T08:55:49.064Z,7.44
2023-03-29T08:58:47.905Z,7.58
2023-03-29T09:01:15.880Z,7.67
2023-03-29T09:04:20.093Z,7.91
2023-03-29T09:06:52.933Z,8.17
2023-03-29T09:09:35.425Z,8.31
2023-03-29T09:12:41.060Z,8.47
2023-03-29T09:15:24.080Z,8.59
2023-03-29T09:18:37.631Z,8.75
2023-03-29T09:21:41.784Z,8.74
2023-03-29T09:24:36.544Z,8.79
2023-03-29T09:27:26.675Z,8.78
2023-03-29T09:30:26.295Z,8.86
2023-03-29T09:33:31.459Z,9.08
2023-03-29T09:36:25.270Z,9.16
2023-03-29T09:38:56.898Z,9.22
2023-03-29T09:41:58.351Z,9.31
2023-03-29T09:44:35.780Z,9.35
2023-03-29T09:47:17.255Z,9.38
2023-03-29T09:49:51.554Z,9.51
2023-03-29T09:52:20.870Z,9.47
2023-03-29T09:54:59.773Z,9.53
2023-03-29T09:57:54.010Z,9.70
2023-03-29T10:00:22.365Z,9.75
2023-03-29T10:02:57.755Z,9.88
2023-03-29T10:05:39.962Z,9.96
2023-03-29T10:08:40.758Z,9.68
2023-03-29T10:11:35.550Z,9.95
2023-03-29T10:14:12.365Z,10.06
2023-03-29T10:16:46.070Z,10.11
2023-03-29T10:19:27.300Z,10.14
2023-03-29T10:21:59.709Z,10.39
2023-03-29T10:24:28.245Z,10.34
2023-03-29T10:27:11.642Z,10.55
2023-03-29T10:29:43.219Z,10.54
2023-03-29T10:32:17.233Z,10.39
2023-03-29T10:34:50.444Z,10.25
2023-03-29T10:37:19.587Z,10.19
2023-03-29T10:39:48.827Z,10.29
2023-03-29T10:42:23.599Z,10.53
2023-03-29T10:44:58.445Z,10.67
2023-03-29T10:47:34.351Z,10.55
2023-03-29T10:50:07.384Z,10.71
2023-03-29T10:52:35.180Z,10.86
2023-03-29T10:55:03.198Z,11.11
2023-03-29T10:58:00.489Z,11.29
2023-03-29T11:00:40.704Z,11.48
2023-03-29T11:03:44.755Z,11.60
2023-03-29T11:06:15.301Z,11.34
2023-03-29T11:09:44.750Z,11.23
2023-03-29T11:12:26.883Z,11.33
2023-03-29T11:15:14.620Z,11.14
2023-03-29T11:18:03.747Z,11.11
2023-03-29T11:20:52.710Z,11.07
2023-03-29T11:23:43.576Z,11.58
2023-03-29T11:26:28.423Z,11.53
2023-03-29T11:29:27.108Z,11.60
2023-03-29T11:32:41.158Z,11.85
2023-03-29T11:35:27.366Z,12.02
2023-03-29T11:38:25.028Z,11.93
2023-03-29T11:41:10.790Z,11.72
2023-03-29T11:43:44.076Z,11.58
2023-03-29T11:46:23.475Z,11.69
2023-03-29T11:49:10.054Z,11.48
2023-03-29T11:51:45.897Z,11.38
2023-03-29T11:54:41.105Z,11.33
2023-03-29T11:57:35.079Z,11.74
2023-03-29T12:00:24.855Z,12.07
2023-03-29T12:03:29.153Z,11.82
2023-03-29T12:06:06.519Z,11.85
2023-03-29T12:08:46.208Z,11.91
2023-03-29T12:11:27.298Z,11.85
2023-03-29T12:14:21.210Z,12.03
2023-03-29T12:16:56.991Z,11.92
2023-03-29T12:19:31.405Z,12.45
2023-03-29T12:22:01.204Z,12.69
2023-03-29T12:24:32.537Z,12.88
2023-03-29T12:27:29.123Z,13.31
2023-03-29T12:31:02.861Z,13.79
2023-03-29T12:33:38.204Z,14.53
2023-03-29T12:36:51.985Z,14.85
2023-03-29T12:39:39.654Z,14.34
2023-03-29T12:42:26.271Z,14.04
2023-03-29T12:45:31.891Z,14.08
2023-03-29T12:48:00.708Z,14.12
2023-03-29T12:50:44.353Z,14.22
2023-03-29T12:53:39.103Z,14.51
2023-03-29T12:56:15.699Z,14.51
2023-03-29T12:59:07.530Z,14.44
2023-03-29T13:01:41.392Z,14.45
2023-03-29T13:04:20.232Z,14.33
2023-03-29T13:07:03.484Z,14.44
2023-03-29T13:09:52.798Z,14.68
2023-03-29T13:12:41.817Z,14.23
2023-03-29T13:15:16.547Z,13.64
2023-03-29T13:18:04.021Z,14.01
2023-03-29T13:20:50.699Z,14.80
2023-03-29T13:23:43.729Z,15.42
2023-03-29T13:26:33.043Z,15.72
2023-03-29T13:29:34.765Z,16.03
2023-03-29T13:32:35.951Z,15.70
2023-03-29T13:35:28.792Z,16.34
2023-03-29T13:38:20.144Z,16.36
2023-03-29T13:40:54.018Z,16.61
2023-03-29T13:43:56.435Z,16.48
2023-03-29T13:46:43.489Z,15.96
2023-03-29T13:49:26.253Z,16.12
2023-03-29T13:51:54.214Z,16.44
2023-03-29T13:54:33.491Z,16.20
2023-03-29T13:57:15.647Z,14.86
2023-03-29T14:00:17.075Z,14.15
2023-03-29T14:02:56.670Z,14.18
2023-03-29T14:05:36.011Z,13.84
2023-03-29T14:08:30.458Z,13.82
2023-03-29T14:11:03.211Z,14.14
2023-03-29T14:13:31.136Z,14.05
2023-03-29T14:16:04.330Z,14.57
2023-03-29T14:18:38.041Z,14.97
2023-03-29T14:21:06.869Z,14.39
2023-03-29T14:23:37.651Z,13.91
2023-03-29T14:26:18.922Z,14.00
2023-03-29T14:28:51.400Z,13.75
2023-03-29T14:31:31.307Z,13.49
2023-03-29T14:34:01.225Z,13.25
2023-03-29T14:36:33.136Z,12.92
2023-03-29T14:39:15.255Z,12.70
2023-03-29T14:41:54.624Z,12.83
2023-03-29T14:44:27.354Z,12.85
2023-03-29T14:46:56.217Z,12.50
2023-03-29T14:49:24.513Z,12.66
2023-03-29T14:51:54.737Z,12.77
2023-03-29T14:54:27.312Z,13.12
2023-03-29T14:56:56.158Z,13.02
2023-03-29T14:59:35.467Z,12.84
2023-03-29T15:02:04.124Z,12.70
2023-03-29T15:04:35.083Z,12.59
2023-03-29T15:07:04.962Z,13.05
2023-03-29T15:09:35.093Z,14.61
2023-03-29T15:12:03.488Z,13.97
2023-03-29T15:14:36.832Z,13.14
2023-03-29T15:17:36.360Z,13.35
2023-03-29T15:20:27.227Z,14.32
2023-03-29T15:23:20.684Z,15.46
2023-03-29T15:26:06.988Z,15.75
2023-03-29T15:28:44.628Z,15.77
2023-03-29T15:31:18.395Z,15.42
2023-03-29T15:33:46.706Z,14.58
2023-03-29T15:36:15.186Z,14.47
2023-03-29T15:38:45.427Z,13.81
2023-03-29T15:41:14.544Z,13.53
2023-03-29T15:43:43.133Z,13.00
2023-03-29T15:46:14.147Z,12.84
2023-03-29T15:48:43.023Z,12.46
2023-03-29T15:51:12.488Z,12.21
2023-03-29T15:53:40.930Z,12.16
2023-03-29T15:56:11.502Z,12.18
2023-03-29T15:58:39.590Z,12.38
2023-03-29T16:01:35.692Z,12.60
2023-03-29T16:04:07.844Z,12.85
2023-03-29T16:06:36.486Z,12.55
2023-03-29T16:09:06.942Z,12.20
2023-03-29T16:11:35.272Z,12.00
2023-03-29T16:14:11.589Z,11.73
2023-03-29T16:16:39.402Z,11.57
2023-03-29T16:19:07.166Z,11.44
2023-03-29T16:21:35.339Z,11.16
2023-03-29T16:24:03.986Z,11.05
2023-03-29T16:26:32.503Z,11.06
2023-03-29T16:29:00.383Z,11.02
2023-03-29T16:31:28.284Z,10.93
2023-03-29T16:33:56.153Z,10.73
2023-03-29T16:36:24.037Z,10.63
2023-03-29T16:38:52.037Z,10.60
2023-03-29T16:41:19.848Z,10.54
2023-03-29T16:43:47.914Z,10.51
2023-03-29T16:46:15.964Z,10.43
2023-03-29T16:48:43.957Z,10.41
2023-03-29T16:51:11.902Z,10.38
2023-03-29T16:53:40.411Z,10.36
2023-03-29T16:56:08.630Z,10.35
2023-03-29T16:58:39.343Z,10.32
2023-03-29T17:01:16.581Z,10.19
2023-03-29T17:03:44.610Z,10.23
2023-03-29T17:06:12.735Z,10.14
2023-03-29T17:08:42.319Z,10.16
2023-03-29T17:11:11.463Z,10.12
2023-03-29T17:13:40.304Z,10.06
2023-03-29T17:16:08.501Z,10.08
2023-03-29T17:18:36.699Z,10.04
2023-03-29T17:21:05.059Z,9.97
2023-03-29T17:23:33.079Z,9.92
2023-03-29T17:26:01.965Z,9.90
2023-03-29T17:28:30.156Z,9.91
2023-03-29T17:30:58.297Z,9.86
2023-03-29T17:33:26.469Z,9.79
2023-03-29T17:35:54.535Z,9.82
2023-03-29T17:38:22.479Z,9.83
2023-03-29T17:40:54.503Z,9.80
2023-03-29T17:43:22.893Z,9.78
2023-03-29T17:45:53.011Z,9.78
2023-03-29T17:48:23.108Z,9.89
2023-03-29T17:50:53.038Z,9.79
2023-03-29T17:53:21.599Z,9.72
2023-03-29T17:55:49.755Z,9.73
2023-03-29T17:58:19.873Z,9.74
2023-03-29T18:00:48.038Z,9.70
2023-03-29T18:03:16.969Z,9.69
2023-03-29T18:05:48.424Z,9.70
2023-03-29T18:08:16.978Z,9.65
2023-03-29T18:10:47.559Z,9.61
2023-03-29T18:13:16.281Z,9.61
2023-03-29T18:15:45.406Z,9.60
2023-03-29T18:18:13.555Z,9.60
2023-03-29T18:20:45.448Z,9.53
2023-03-29T18:23:13.787Z,9.54
2023-03-29T18:25:42.052Z,9.52
2023-03-29T18:28:10.480Z,9.52
2023-03-29T18:30:38.633Z,9.57
2023-03-29T18:33:06.835Z,9.62
2023-03-29T18:35:35.283Z,9.61
2023-03-29T18:38:04.588Z,9.52
2023-03-29T18:40:34.604Z,9.49
2023-03-29T18:43:02.775Z,9.48
2023-03-29T18:45:31.477Z,9.39
2023-03-29T18:47:59.692Z,9.22
2023-03-29T18:50:27.946Z,9.11
2023-03-29T18:52:55.824Z,9.12
2023-03-29T18:55:23.892Z,9.13
2023-03-29T18:57:51.944Z,9.04
2023-03-29T19:00:19.921Z,9.05
2023-03-29T19:02:48.351Z,9.01
2023-03-29T19:05:16.321Z,8.96
2023-03-29T19:07:44.453Z,8.97
2023-03-29T19:10:12.312Z,8.93
2023-03-29T19:12:40.182Z,8.92
2023-03-29T19:15:09.541Z,8.89
2023-03-29T19:17:37.362Z,8.88
2023-03-29T19:20:09.847Z,8.85
2023-03-29T19:22:38.378Z,8.77
2023-03-29T19:25:07.462Z,8.76
2023-03-29T19:27:35.344Z,8.67
2023-03-29T19:30:04.299Z,8.62
2023-03-29T19:32:33.653Z,8.71
2023-03-29T19:35:01.855Z,8.72
2023-03-29T19:37:29.978Z,8.87
2023-03-29T19:39:57.828Z,8.84
2023-03-29T19:42:25.656Z,8.80
2023-03-29T19:44:53.503Z,8.73
2023-03-29T19:47:21.312Z,8.73
2023-03-29T19:49:49.234Z,8.65
2023-03-29T19:52:17.022Z,8.67
2023-03-29T19:54:44.935Z,8.71
2023-03-29T19:57:12.867Z,8.76
2023-03-29T19:59:41.025Z,8.84
2023-03-29T20:02:11.324Z,8.83
2023-03-29T20:04:39.623Z,8.76
2023-03-29T20:07:07.683Z,8.70
2023-03-29T20:09:35.568Z,8.69
2023-03-29T20:12:04.600Z,8.70
2023-03-29T20:14:34.211Z,8.65
2023-03-29T20:17:02.199Z,8.68
2023-03-29T20:19:30.011Z,8.68
2023-03-29T20:21:58.814Z,8.72
2023-03-29T20:24:26.707Z,8.70
2023-03-29T20:26:55.179Z,8.71
2023-03-29T20:29:22.991Z,8.70
2023-03-29T20:31:50.807Z,8.72
2023-03-29T20:34:18.786Z,8.66
2023-03-29T20:36:46.970Z,8.60
2023-03-29T20:39:18.630Z,8.62
2023-03-29T20:41:49.164Z,8.60
2023-03-29T20:44:18.334Z,8.65
2023-03-29T20:46:54.261Z,8.75
2023-03-29T20:49:26.564Z,8.82
2023-03-29T20:52:00.926Z,8.84
2023-03-29T20:54:28.832Z,8.82
2023-03-29T20:56:56.764Z,8.88
2023-03-29T20:59:24.949Z,8.92
2023-03-29T21:01:53.200Z,8.88
2023-03-29T21:04:21.456Z,8.96
2023-03-29T21:06:49.702Z,9.15
2023-03-29T21:09:20.899Z,9.17
2023-03-29T21:11:49.876Z,9.19
2023-03-29T21:14:19.469Z,9.14
2023-03-29T21:16:50.361Z,9.18
2023-03-29T21:19:18.699Z,9.09
2023-03-29T21:21:48.211Z,8.94
2023-03-29T21:24:16.045Z,8.90
2023-03-29T21:26:44.557Z,8.85
2023-03-29T21:29:12.515Z,8.84
2023-03-29T21:31:40.644Z,8.94
2023-03-29T21:34:09.000Z,8.99
2023-03-29T21:36:36.843Z,9.07
2023-03-29T21:39:04.721Z,9.14
2023-03-29T21:41:32.681Z,9.11
2023-03-29T21:44:00.614Z,9.07
2023-03-29T21:46:28.660Z,9.07
2023-03-29T21:48:56.555Z,9.07
2023-03-29T21:51:24.504Z,9.12
2023-03-29T21:53:52.373Z,9.07
2023-03-29T21:56:20.253Z,9.15
2023-03-29T21:58:48.013Z,9.27
2023-03-29T22:01:16.310Z,9.27
2023-03-29T22:03:44.374Z,9.24
2023-03-29T22:06:14.604Z,9.26
2023-03-29T22:08:42.492Z,9.23
2023-03-29T22:11:16.437Z,9.22
2023-03-29T22:13:44.830Z,9.23
2023-03-29T22:16:16.346Z,9.27
2023-03-29T22:18:49.461Z,9.23
2023-03-29T22:21:26.731Z,9.24
2023-03-29T22:23:56.968Z,9.30
2023-03-29T22:26:29.075Z,9.27
2023-03-29T22:28:59.680Z,9.24
2023-03-29T22:31:29.534Z,9.16
2023-03-29T22:33:58.486Z,9.19
2023-03-29T22:36:29.975Z,9.23
2023-03-29T22:38:58.000Z,9.24
2023-03-29T22:41:28.139Z,9.25
2023-03-29T22:43:59.200Z,9.22
2023-03-29T22:46:27.517Z,9.29
2023-03-29T22:48:55.668Z,9.29
2023-03-29T22:51:23.639Z,9.30
2023-03-29T22:53:51.721Z,9.60
2023-03-29T22:56:19.709Z,9.76
2023-03-29T22:58:47.522Z,9.97
2023-03-29T23:01:15.736Z,10.10
2023-03-29T23:03:43.586Z,10.25
2023-03-29T23:06:11.568Z,10.32
2023-03-29T23:08:39.378Z,10.33
2023-03-29T23:11:11.436Z,10.44
2023-03-29T23:13:41.277Z,10.45
2023-03-29T23:16:09.567Z,10.39
2023-03-29T23:18:37.651Z,10.36
2023-03-29T23:21:06.789Z,10.44
2023-03-29T23:23:35.552Z,10.46
2023-03-29T23:26:03.954Z,10.41
2023-03-29T23:28:34.315Z,10.40
2023-03-29T23:31:18.291Z,10.42
2023-03-29T23:33:46.326Z,10.46
2023-03-29T23:36:17.382Z,10.53
2023-03-29T23:38:46.918Z,10.49
2023-03-29T23:41:16.696Z,10.49
2023-03-29T23:43:46.970Z,10.51
2023-03-29T23:46:17.112Z,10.57
2023-03-29T23:48:48.868Z,10.60
2023-03-29T23:51:22.610Z,10.61
2023-03-29T23:53:51.128Z,10.51
2023-03-29T23:56:19.022Z,10.56
2023-03-29T23:58:47.260Z,10.61
